createdAt,value
2019-02-25T00:01:48.923Z,29.90
2019-02-25T00:04:17.762Z,31.03
2019-02-25T00:06:47.757Z,21.70
2019-02-25T00:09:17.848Z,29.37
2019-02-25T00:11:46.733Z,19.90
2019-02-25T00:14:15.690Z,29.87
2019-02-25T00:16:44.451Z,25.20
2019-02-25T00:19:13.416Z,20.77
2019-02-25T00:21:42.200Z,26.40
2019-02-25T00:24:10.989Z,29.97
2019-02-25T00:26:39.882Z,25.00
2019-02-25T00:29:08.792Z,23.33
2019-02-25T00:31:37.694Z,26.50
2019-02-25T00:34:06.686Z,26.67
2019-02-25T00:36:35.536Z,26.60
2019-02-25T00:39:09.571Z,26.43
2019-02-25T00:41:38.430Z,31.00
2019-02-25T00:44:07.260Z,23.80
2019-02-25T00:46:36.168Z,28.27
2019-02-25T00:49:05.132Z,24.27
2019-02-25T00:51:34.076Z,32.33
2019-02-25T00:54:02.870Z,23.70
2019-02-25T00:56:31.648Z,22.10
2019-02-25T00:59:00.429Z,23.13
2019-02-25T01:01:29.255Z,23.70
2019-02-25T01:04:00.331Z,26.90
2019-02-25T01:06:28.667Z,26.00
2019-02-25T01:08:57.466Z,25.47
2019-02-25T01:11:26.280Z,25.40
2019-02-25T01:13:55.196Z,20.73
2019-02-25T01:16:24.112Z,25.77
2019-02-25T01:18:53.300Z,26.13
2019-02-25T01:21:22.206Z,25.53
2019-02-25T01:23:51.054Z,23.70
2019-02-25T01:26:19.910Z,25.00
2019-02-25T01:28:48.686Z,24.50
2019-02-25T01:31:17.529Z,28.70
2019-02-25T01:33:46.313Z,27.40
2019-02-25T01:36:15.297Z,19.67
2019-02-25T01:38:44.113Z,24.97
2019-02-25T01:41:13.088Z,22.90
2019-02-25T01:43:41.950Z,22.87
2019-02-25T01:46:10.732Z,23.90
2019-02-25T01:48:39.511Z,22.83
2019-02-25T01:51:08.314Z,26.90
2019-02-25T01:53:37.126Z,23.13
2019-02-25T01:56:05.936Z,26.00
2019-02-25T01:58:34.791Z,26.07
2019-02-25T02:01:03.652Z,22.53
2019-02-25T02:03:32.405Z,24.00
2019-02-25T02:06:01.194Z,19.20
2019-02-25T02:08:30.013Z,24.70
2019-02-25T02:10:58.835Z,28.30
2019-02-25T02:13:27.742Z,21.77
2019-02-25T02:15:56.521Z,24.53
2019-02-25T02:18:25.334Z,25.87
2019-02-25T02:20:54.149Z,23.73
2019-02-25T02:23:26.010Z,23.60
2019-02-25T02:25:54.855Z,23.03
2019-02-25T02:28:23.600Z,26.03
2019-02-25T02:30:52.396Z,16.13
2019-02-25T02:33:21.239Z,23.52
2019-02-25T02:35:50.172Z,24.10
2019-02-25T02:38:18.967Z,21.43
2019-02-25T02:40:47.847Z,20.60
2019-02-25T02:43:16.678Z,23.27
2019-02-25T02:45:52.245Z,18.53
2019-02-25T02:48:48.282Z,21.57
2019-02-25T02:51:19.875Z,18.97
2019-02-25T02:53:48.716Z,24.97
2019-02-25T02:56:17.509Z,16.17
2019-02-25T02:58:46.378Z,21.80
2019-02-25T03:01:15.213Z,18.93
2019-02-25T03:03:43.985Z,20.53
2019-02-25T03:06:12.947Z,18.93
2019-02-25T03:08:41.955Z,21.57
2019-02-25T03:11:10.855Z,15.90
2019-02-25T03:13:39.622Z,16.60
2019-02-25T03:16:08.524Z,22.35
2019-02-25T03:18:37.347Z,18.23
2019-02-25T03:21:06.129Z,14.83
2019-02-25T03:23:34.998Z,17.48
2019-02-25T03:26:03.793Z,17.30
2019-02-25T03:28:32.674Z,15.33
2019-02-25T03:31:01.590Z,16.57
2019-02-25T03:33:30.494Z,15.73
2019-02-25T03:35:59.373Z,21.50
2019-02-25T03:38:28.199Z,19.02
2019-02-25T03:40:57.003Z,20.57
2019-02-25T03:43:25.805Z,19.80
2019-02-25T03:45:54.641Z,20.52
2019-02-25T03:48:23.513Z,21.42
2019-02-25T03:50:52.403Z,15.33
2019-02-25T03:53:21.317Z,17.17
2019-02-25T03:55:50.283Z,16.20
2019-02-25T03:58:19.216Z,24.37
2019-02-25T04:00:48.300Z,17.97
2019-02-25T04:03:17.211Z,17.32
2019-02-25T04:05:46.120Z,17.63
2019-02-25T04:08:15.223Z,23.50
2019-02-25T04:10:44.069Z,18.37
2019-02-25T04:13:12.971Z,21.05
2019-02-25T04:15:44.047Z,18.57
2019-02-25T04:18:12.974Z,17.23
2019-02-25T04:20:41.833Z,17.55
2019-02-25T04:23:10.623Z,23.10
2019-02-25T04:25:39.421Z,18.77
2019-02-25T04:28:08.311Z,18.73
2019-02-25T04:30:37.099Z,18.75
2019-02-25T04:33:06.073Z,14.20
2019-02-25T04:35:34.946Z,17.40
2019-02-25T04:38:03.947Z,16.48
2019-02-25T04:40:32.823Z,20.45
2019-02-25T04:43:01.771Z,16.93
2019-02-25T04:45:30.811Z,18.82
2019-02-25T04:47:59.695Z,16.90
2019-02-25T04:50:28.577Z,18.32
2019-02-25T04:52:57.577Z,17.60
2019-02-25T04:55:26.530Z,17.30
2019-02-25T04:57:55.637Z,23.95
2019-02-25T05:00:24.533Z,24.45
2019-02-25T05:02:53.511Z,18.92
2019-02-25T05:05:22.472Z,23.85
2019-02-25T05:07:51.529Z,18.20
2019-02-25T05:10:20.395Z,16.77
2019-02-25T05:12:54.809Z,20.37
2019-02-25T05:15:25.672Z,21.45
2019-02-25T05:17:54.614Z,21.52
2019-02-25T05:20:23.504Z,16.02
2019-02-25T05:22:52.380Z,19.37
2019-02-25T05:25:21.325Z,18.50
2019-02-25T05:27:50.269Z,16.55
2019-02-25T05:30:19.183Z,20.00
2019-02-25T05:32:48.151Z,17.20
2019-02-25T05:35:17.088Z,15.03
2019-02-25T05:37:46.616Z,23.30
2019-02-25T05:40:15.853Z,16.90
2019-02-25T05:42:44.761Z,24.07
2019-02-25T05:45:13.937Z,14.50
2019-02-25T05:47:42.880Z,20.25
2019-02-25T05:50:13.278Z,19.23
2019-02-25T05:52:42.171Z,13.87
2019-02-25T05:55:12.341Z,11.12
2019-02-25T05:57:41.330Z,17.48
2019-02-25T06:00:17.600Z,19.25
2019-02-25T06:02:46.742Z,24.65
2019-02-25T06:05:15.678Z,12.85
2019-02-25T06:07:44.583Z,14.93
2019-02-25T06:10:13.620Z,18.85
2019-02-25T06:12:42.663Z,20.57
2019-02-25T06:15:12.411Z,18.75
2019-02-25T06:17:41.255Z,20.75
2019-02-25T06:20:10.721Z,21.70
2019-02-25T06:22:39.613Z,16.37
2019-02-25T06:25:08.887Z,28.52
2019-02-25T06:27:37.913Z,20.17
2019-02-25T06:30:08.276Z,20.45
2019-02-25T06:32:37.110Z,23.73
2019-02-25T06:35:06.621Z,16.50
2019-02-25T06:37:35.419Z,27.65
2019-02-25T06:40:04.571Z,22.93
2019-02-25T06:42:34.391Z,20.55
2019-02-25T06:45:03.176Z,20.37
2019-02-25T06:47:31.978Z,24.23
2019-02-25T06:50:00.763Z,20.53
2019-02-25T06:52:29.535Z,29.33
2019-02-25T06:54:58.331Z,18.65
2019-02-25T06:57:27.108Z,27.48
2019-02-25T06:59:55.981Z,21.60
2019-02-25T07:02:24.731Z,25.60
2019-02-25T07:05:01.293Z,20.13
2019-02-25T07:07:48.891Z,16.83
2019-02-25T07:10:36.315Z,20.17
2019-02-25T07:13:30.409Z,29.10
2019-02-25T07:16:23.489Z,33.63
2019-02-25T07:19:06.719Z,24.60
2019-02-25T07:21:47.665Z,21.00
2019-02-25T07:24:23.566Z,24.97
2019-02-25T07:27:05.546Z,22.47
2019-02-25T07:29:52.246Z,20.60
2019-02-25T07:32:32.384Z,24.43
2019-02-25T07:35:09.500Z,29.10
2019-02-25T07:37:56.219Z,24.40
2019-02-25T07:40:33.278Z,21.10
2019-02-25T07:43:17.065Z,20.10
2019-02-25T07:45:55.974Z,23.43
2019-02-25T07:48:42.562Z,23.47
2019-02-25T07:51:29.271Z,16.07
2019-02-25T07:54:09.799Z,24.13
2019-02-25T07:57:00.753Z,22.40
2019-02-25T07:59:48.667Z,17.60
2019-02-25T08:02:33.577Z,36.70
2019-02-25T08:05:10.807Z,21.20
2019-02-25T08:07:57.218Z,20.67
2019-02-25T08:10:43.491Z,20.47
2019-02-25T08:13:37.452Z,23.87
2019-02-25T08:16:23.770Z,24.67
2019-02-25T08:19:17.780Z,26.73
2019-02-25T08:22:14.698Z,31.53
2019-02-25T08:25:05.403Z,27.53
2019-02-25T08:27:53.285Z,28.47
2019-02-25T08:30:47.302Z,26.87
2019-02-25T08:33:44.283Z,26.23
2019-02-25T08:37:02.347Z,27.83
2019-02-25T08:39:46.146Z,24.07
2019-02-25T08:42:44.924Z,23.70
2019-02-25T08:45:31.842Z,27.80
2019-02-25T08:48:08.099Z,24.30
2019-02-25T08:50:36.961Z,24.63
2019-02-25T08:53:05.802Z,26.80
2019-02-25T08:55:34.582Z,23.27
2019-02-25T08:58:03.503Z,31.17
2019-02-25T09:00:32.385Z,27.30
2019-02-25T09:03:01.146Z,29.63
2019-02-25T09:05:29.960Z,28.27
2019-02-25T09:07:58.742Z,26.90
2019-02-25T09:10:27.650Z,23.57
2019-02-25T09:12:56.519Z,27.13
2019-02-25T09:15:27.515Z,26.87
2019-02-25T09:17:54.758Z,29.80
2019-02-25T09:20:23.594Z,28.03
2019-02-25T09:22:52.395Z,28.10
2019-02-25T09:25:21.240Z,30.77
2019-02-25T09:27:50.100Z,33.10
2019-02-25T09:30:19.065Z,29.63
2019-02-25T09:32:48.768Z,38.00
2019-02-25T09:35:17.619Z,33.50
2019-02-25T09:37:46.406Z,33.20
2019-02-25T09:40:15.609Z,37.40
2019-02-25T09:42:44.464Z,35.20
2019-02-25T09:45:14.471Z,41.73
2019-02-25T09:47:43.366Z,33.77
2019-02-25T09:50:12.929Z,33.63
2019-02-25T09:52:41.792Z,37.83
2019-02-25T09:55:11.304Z,37.00
2019-02-25T09:57:40.222Z,36.73
2019-02-25T10:00:12.558Z,41.43
2019-02-25T10:02:41.433Z,44.97
2019-02-25T10:05:10.331Z,41.07
2019-02-25T10:07:39.081Z,37.60
2019-02-25T10:10:09.752Z,48.27
2019-02-25T10:12:38.564Z,40.67
2019-02-25T10:15:09.012Z,33.13
2019-02-25T10:17:37.816Z,36.70
2019-02-25T10:20:07.288Z,36.17
2019-02-25T10:22:36.114Z,38.23
2019-02-25T10:25:05.168Z,42.50
2019-02-25T10:27:34.078Z,42.47
2019-02-25T10:30:04.488Z,43.37
2019-02-25T10:32:33.315Z,46.50
2019-02-25T10:35:02.165Z,39.30
2019-02-25T10:37:30.992Z,42.47
2019-02-25T10:39:59.782Z,39.43
2019-02-25T10:42:29.440Z,49.03
2019-02-25T10:44:59.323Z,41.43
2019-02-25T10:47:28.135Z,44.03
2019-02-25T10:49:58.583Z,39.67
2019-02-25T10:52:27.511Z,43.40
2019-02-25T10:54:58.210Z,39.43
2019-02-25T10:57:29.183Z,46.77
2019-02-25T10:59:57.432Z,38.53
2019-02-25T11:02:26.309Z,47.17
2019-02-25T11:04:55.623Z,37.80
2019-02-25T11:07:25.769Z,36.87
2019-02-25T11:10:09.350Z,37.87
2019-02-25T11:12:49.811Z,35.70
2019-02-25T11:15:18.652Z,35.70
2019-02-25T11:17:48.009Z,37.00
2019-02-25T11:20:17.932Z,38.77
2019-02-25T11:22:48.422Z,37.80
2019-02-25T11:25:19.284Z,38.03
2019-02-25T11:27:48.040Z,47.90
2019-02-25T11:30:18.857Z,32.77
2019-02-25T11:32:49.119Z,31.73
2019-02-25T11:35:18.128Z,37.40
2019-02-25T11:37:51.845Z,35.37
2019-02-25T11:40:20.874Z,38.93
2019-02-25T11:42:54.086Z,41.07
2019-02-25T11:45:23.358Z,37.90
2019-02-25T11:47:52.349Z,36.07
2019-02-25T11:50:21.536Z,45.07
2019-02-25T11:52:50.400Z,43.63
2019-02-25T11:55:19.428Z,33.90
2019-02-25T11:57:48.344Z,33.10
2019-02-25T12:00:18.823Z,29.73
2019-02-25T12:02:48.030Z,41.43
2019-02-25T12:05:17.480Z,30.80
2019-02-25T12:07:49.384Z,33.87
2019-02-25T12:10:18.350Z,36.70
2019-02-25T12:12:47.240Z,46.50
2019-02-25T12:15:16.282Z,31.83
2019-02-25T12:17:45.142Z,34.80
2019-02-25T12:20:17.144Z,41.50
2019-02-25T12:22:46.039Z,38.83
2019-02-25T12:25:15.555Z,35.10
2019-02-25T12:27:44.465Z,37.97
2019-02-25T12:30:15.760Z,42.53
2019-02-25T12:32:45.090Z,43.47
2019-02-25T12:35:14.545Z,37.30
2019-02-25T12:37:46.303Z,40.10
2019-02-25T12:40:15.759Z,33.50
2019-02-25T12:42:44.626Z,37.50
2019-02-25T12:45:13.652Z,34.30
2019-02-25T12:47:42.595Z,36.27
2019-02-25T12:50:13.070Z,38.63
2019-02-25T12:52:41.910Z,35.03
2019-02-25T12:55:11.232Z,37.20
2019-02-25T12:57:40.023Z,28.97
2019-02-25T13:00:11.652Z,38.87
2019-02-25T13:02:40.602Z,33.70
2019-02-25T13:05:11.521Z,39.20
2019-02-25T13:07:40.360Z,37.97
2019-02-25T13:10:10.888Z,35.97
2019-02-25T13:12:39.682Z,29.47
2019-02-25T13:15:13.406Z,37.73
2019-02-25T13:17:40.225Z,41.00
2019-02-25T13:20:09.382Z,33.67
2019-02-25T13:22:38.254Z,33.97
2019-02-25T13:25:10.443Z,35.47
2019-02-25T13:27:38.874Z,38.23
2019-02-25T13:30:10.656Z,28.23
2019-02-25T13:32:39.577Z,33.43
2019-02-25T13:35:08.562Z,34.50
2019-02-25T13:37:37.504Z,43.40
2019-02-25T13:40:07.434Z,41.90
2019-02-25T13:42:36.398Z,34.47
2019-02-25T13:45:05.648Z,42.00
2019-02-25T13:47:34.658Z,43.40
2019-02-25T13:50:04.847Z,38.13
2019-02-25T13:52:33.741Z,35.67
2019-02-25T13:55:02.623Z,38.57
2019-02-25T13:57:31.506Z,39.10
2019-02-25T14:00:00.474Z,42.20
2019-02-25T14:02:29.345Z,41.53
2019-02-25T14:04:58.541Z,38.50
2019-02-25T14:07:27.524Z,40.33
2019-02-25T14:09:56.480Z,36.17
2019-02-25T14:12:25.395Z,33.63
2019-02-25T14:14:54.362Z,33.33
2019-02-25T14:17:23.314Z,37.17
2019-02-25T14:19:52.730Z,38.80
2019-02-25T14:22:21.623Z,41.37
2019-02-25T14:24:50.593Z,40.73
2019-02-25T14:27:19.466Z,35.73
2019-02-25T14:29:48.892Z,32.80
2019-02-25T14:32:17.815Z,33.77
2019-02-25T14:34:46.903Z,32.87
2019-02-25T14:37:17.345Z,32.80
2019-02-25T14:39:49.446Z,33.40
2019-02-25T14:42:18.891Z,29.93
2019-02-25T14:44:50.022Z,33.70
2019-02-25T14:47:22.515Z,32.47
2019-02-25T14:49:48.699Z,37.67
2019-02-25T14:52:19.215Z,28.00
2019-02-25T14:54:48.219Z,25.60
2019-02-25T14:57:24.834Z,26.60
2019-02-25T14:59:54.064Z,32.43
2019-02-25T15:02:22.941Z,30.57
2019-02-25T15:04:51.957Z,21.27
2019-02-25T15:07:42.465Z,21.73
2019-02-25T15:10:11.630Z,26.20
2019-02-25T15:12:40.456Z,31.10
2019-02-25T15:15:11.048Z,23.97
2019-02-25T15:17:41.890Z,37.87
2019-02-25T15:20:12.537Z,27.73
2019-02-25T15:22:43.302Z,40.60
2019-02-25T15:25:13.710Z,29.57
2019-02-25T15:27:42.804Z,27.40
2019-02-25T15:30:16.686Z,28.23
2019-02-25T15:32:54.885Z,33.00
2019-02-25T15:35:15.923Z,30.53
2019-02-25T15:37:46.710Z,33.10
2019-02-25T15:40:18.154Z,32.33
2019-02-25T15:42:46.434Z,25.10
2019-02-25T15:45:16.931Z,30.60
2019-02-25T15:47:46.919Z,35.13
2019-02-25T15:50:17.152Z,35.30
2019-02-25T15:52:46.161Z,28.47
2019-02-25T15:55:17.361Z,33.00
2019-02-25T15:57:47.720Z,28.73
2019-02-25T16:00:21.287Z,28.23
2019-02-25T16:02:53.522Z,31.20
2019-02-25T16:05:23.366Z,29.63
2019-02-25T16:07:54.323Z,30.30
2019-02-25T16:10:24.335Z,29.73
2019-02-25T16:12:55.731Z,33.07
2019-02-25T16:15:24.187Z,30.43
2019-02-25T16:17:53.166Z,33.33
2019-02-25T16:20:22.257Z,29.13
2019-02-25T16:22:51.267Z,33.60
2019-02-25T16:25:20.336Z,36.60
2019-02-25T16:27:50.487Z,32.47
2019-02-25T16:30:21.408Z,34.63
2019-02-25T16:32:50.734Z,28.50
2019-02-25T16:35:21.073Z,27.40
2019-02-25T16:37:50.738Z,33.30
2019-02-25T16:40:24.437Z,31.73
2019-02-25T16:42:54.977Z,25.90
2019-02-25T16:45:21.806Z,26.57
2019-02-25T16:47:50.961Z,27.77
2019-02-25T16:50:21.101Z,28.23
2019-02-25T16:52:50.825Z,28.80
2019-02-25T16:55:22.491Z,28.43
2019-02-25T16:57:51.022Z,35.00
2019-02-25T17:00:20.064Z,30.53
2019-02-25T17:02:49.057Z,32.80
2019-02-25T17:05:17.969Z,30.57
2019-02-25T17:07:48.880Z,28.60
2019-02-25T17:10:19.453Z,26.90
2019-02-25T17:12:50.024Z,31.40
2019-02-25T17:15:19.463Z,30.23
2019-02-25T17:17:48.403Z,30.73
2019-02-25T17:20:17.281Z,29.50
2019-02-25T17:22:46.436Z,32.10
2019-02-25T17:25:15.604Z,26.97
2019-02-25T17:27:45.675Z,29.73
2019-02-25T17:30:17.448Z,27.43
2019-02-25T17:32:48.354Z,32.30
2019-02-25T17:35:19.038Z,31.40
2019-02-25T17:37:48.842Z,26.77
2019-02-25T17:40:20.781Z,27.47
2019-02-25T17:42:58.377Z,31.33
2019-02-25T17:45:27.685Z,26.77
2019-02-25T17:48:03.247Z,26.23
2019-02-25T17:50:34.226Z,24.10
2019-02-25T17:53:03.041Z,25.30
2019-02-25T17:55:36.329Z,35.83
2019-02-25T17:58:09.591Z,23.37
2019-02-25T18:00:42.419Z,24.33
2019-02-25T18:03:13.039Z,29.27
2019-02-25T18:05:43.257Z,29.53
2019-02-25T18:08:15.159Z,28.70
2019-02-25T18:10:45.207Z,30.97
2019-02-25T18:13:13.821Z,26.83
2019-02-25T18:15:42.921Z,27.30
2019-02-25T18:18:17.139Z,26.83
2019-02-25T18:20:43.557Z,30.53
2019-02-25T18:23:12.705Z,32.90
2019-02-25T18:25:41.871Z,23.97
2019-02-25T18:28:12.674Z,29.13
2019-02-25T18:30:41.649Z,35.13
2019-02-25T18:33:11.204Z,23.90
2019-02-25T18:35:41.649Z,31.70
2019-02-25T18:38:11.882Z,24.73
2019-02-25T18:40:45.736Z,31.93
2019-02-25T18:43:13.766Z,25.80
2019-02-25T18:45:43.129Z,29.97
2019-02-25T18:48:13.628Z,31.67
2019-02-25T18:50:45.014Z,34.03
2019-02-25T18:53:17.031Z,30.87
2019-02-25T18:55:47.958Z,24.53
2019-02-25T18:58:17.759Z,26.27
2019-02-25T19:00:49.278Z,35.07
2019-02-25T19:03:17.739Z,27.70
2019-02-25T19:05:46.725Z,28.53
2019-02-25T19:08:19.821Z,26.57
2019-02-25T19:10:50.304Z,30.17
2019-02-25T19:13:20.957Z,26.20
2019-02-25T19:15:50.747Z,27.10
2019-02-25T19:18:20.368Z,28.07
2019-02-25T19:20:49.566Z,29.57
2019-02-25T19:23:18.500Z,31.83
2019-02-25T19:25:47.479Z,33.60
2019-02-25T19:28:18.725Z,36.33
2019-02-25T19:30:51.397Z,26.87
2019-02-25T19:33:20.909Z,27.87
2019-02-25T19:35:49.911Z,26.90
2019-02-25T19:38:18.877Z,31.07
2019-02-25T19:40:51.290Z,31.30
2019-02-25T19:43:19.964Z,33.17
2019-02-25T19:45:51.342Z,32.30
2019-02-25T19:48:22.614Z,28.10
2019-02-25T19:50:52.163Z,28.70
2019-02-25T19:53:22.992Z,28.43
2019-02-25T19:55:53.760Z,30.33
2019-02-25T19:58:24.178Z,29.80
2019-02-25T20:01:00.421Z,23.53
2019-02-25T20:03:28.974Z,28.53
2019-02-25T20:05:57.847Z,30.50
2019-02-25T20:08:26.833Z,26.70
2019-02-25T20:10:55.645Z,33.17
2019-02-25T20:13:24.648Z,29.30
2019-02-25T20:15:55.661Z,32.07
2019-02-25T20:18:24.501Z,26.83
2019-02-25T20:20:55.044Z,28.90
2019-02-25T20:23:28.744Z,29.43
2019-02-25T20:25:58.451Z,31.03
2019-02-25T20:28:27.391Z,28.57
2019-02-25T20:30:56.308Z,23.63
2019-02-25T20:33:30.469Z,30.37
2019-02-25T20:35:56.736Z,23.93
2019-02-25T20:38:27.067Z,28.83
2019-02-25T20:40:57.837Z,36.60
2019-02-25T20:43:28.227Z,28.43
2019-02-25T20:45:59.298Z,27.33
2019-02-25T20:48:28.341Z,43.93
2019-02-25T20:50:59.633Z,29.00
2019-02-25T20:53:31.644Z,28.70
2019-02-25T20:55:59.142Z,36.30
2019-02-25T20:58:28.061Z,31.93
2019-02-25T21:00:57.429Z,29.37
2019-02-25T21:03:27.641Z,29.07
2019-02-25T21:05:56.628Z,33.53
2019-02-25T21:16:35.346Z,30.87
2019-02-25T21:19:08.126Z,28.00
2019-02-25T21:21:36.793Z,26.00
2019-02-25T21:24:08.922Z,26.37
2019-02-25T21:26:40.898Z,28.23
2019-02-25T21:29:10.301Z,29.87
2019-02-25T21:31:42.843Z,34.57
2019-02-25T21:34:15.338Z,35.67
2019-02-25T21:36:41.540Z,31.87
2019-02-25T21:39:12.854Z,34.03
2019-02-25T21:41:43.595Z,29.63
2019-02-25T21:44:18.814Z,37.00
2019-02-25T21:46:49.532Z,28.70
2019-02-25T21:49:16.674Z,27.63
2019-02-25T21:51:48.022Z,29.90
2019-02-25T21:54:16.511Z,28.00
2019-02-25T21:56:45.338Z,29.77
2019-02-25T21:59:15.054Z,42.47
2019-02-25T22:01:44.797Z,36.77
2019-02-25T22:04:15.533Z,33.93
2019-02-25T22:06:47.125Z,30.87
2019-02-25T22:09:19.158Z,34.50
2019-02-25T22:11:46.426Z,29.70
2019-02-25T22:14:16.426Z,33.53
2019-02-25T22:16:46.474Z,26.43
2019-02-25T22:19:16.428Z,33.90
2019-02-25T22:21:46.344Z,36.43
2019-02-25T22:24:15.389Z,39.47
2019-02-25T22:26:44.370Z,32.47
2019-02-25T22:29:13.275Z,32.30
2019-02-25T22:31:44.093Z,30.77
2019-02-25T22:34:15.314Z,34.00
2019-02-25T22:36:45.859Z,32.00
2019-02-25T22:39:14.520Z,34.17
2019-02-25T22:41:44.459Z,30.17
2019-02-25T22:44:13.782Z,34.73
2019-02-25T22:46:43.421Z,30.13
2019-02-25T22:49:14.468Z,28.90
2019-02-25T22:51:43.341Z,34.03
2019-02-25T22:54:14.654Z,33.47
2019-02-25T22:56:43.794Z,27.63
2019-02-25T22:59:12.702Z,33.03
2019-02-25T23:01:44.396Z,35.50
2019-02-25T23:04:15.530Z,27.87
2019-02-25T23:06:46.301Z,35.87
2019-02-25T23:09:30.125Z,31.60
2019-02-25T23:12:00.515Z,30.60
2019-02-25T23:14:36.246Z,28.70
2019-02-25T23:17:08.933Z,25.00
2019-02-25T23:19:39.198Z,33.73
2019-02-25T23:22:08.850Z,33.80
2019-02-25T23:24:39.797Z,24.33
2019-02-25T23:27:08.210Z,30.03
2019-02-25T23:29:37.316Z,38.87
2019-02-25T23:32:06.096Z,32.87
2019-02-25T23:34:38.577Z,37.53
2019-02-25T23:37:12.848Z,29.67
2019-02-25T23:39:44.781Z,30.43
2019-02-25T23:42:16.306Z,27.30
2019-02-25T23:44:45.840Z,30.50
2019-02-25T23:47:14.689Z,28.00
2019-02-25T23:49:43.784Z,31.63
2019-02-25T23:52:15.581Z,29.03
2019-02-25T23:54:47.816Z,32.47
2019-02-25T23:57:21.379Z,43.33
2019-02-25T23:59:51.124Z,30.47
